Hovedside
METAR-TAF:

METAR-TAF

Lufthavner :

Kuusamo lufthavn

Kuusamo, Finland

breddegrad: 65-58N, lengdegrad: 029-11E, høyde over havet: 262 m

Gjeldene værobservasjon

Denne rapporten ble laget for 25 minutter siden, klokken 04:20 UTC
Vind 10 kt fra Øst-sørøst
Temperatur -12°C
Luftfuktighet 85%
Trykk 1006 hPa
Sikt 10 km eller mer
Overskyet i en høyde av 4700 ft
lette snøbyger

METAR: EFKS 290420Z AUTO 11010KT 9999 -SHSN OVC047 M12/M14 Q1006

Tid: 06:45 (04:45 UTC)

Varsel

Denne rapporten ble laget for 17 timer og 16 minutter siden, klokken 11:29 UTC
Varsel gyldig fra 28. klokken 12 UTC til 28. klokken 14 UTC
Vind 11 kt fra Øst-sørøst
Sikt: 2500 m
Brutte skyer i en høyde av 2000 ft
lett snø
Midlertidig
fra 28. klokken 12 UTC til 28. klokken 14 UTC
Sikt: 5000 m

TAF: EFKS 281129Z 2812/2814 11011KT 2500 -SN BKN020 TEMPO 2812/2814 5000

Værobservasjoner og værvarsel for over 4000 flyplasser (METAR- og TAF-rapporter).

Tilgjengelige stasjoner er representert av de røde og gule prikkene på kartet.

Hold musepekeren over prikken for å se navnet på stasjonen.

Klikk så for å se værobservasjoner og -varsler.

For å forandre kartet kan du klikke på den grønne knappen med svart kryss for å zoome inn, på den grønne knappen med strek for å zoome ut, eller på de grønne pilene for å se tilstøtende kart.


METAR-TAF: